sensor_id;sensor_type;location;lat;lon;timestamp;temperature;humidity
14057;DHT22;7103;54.300;10.180;2023-08-06T00:01:15;16.60;1.00
14057;DHT22;7103;54.300;10.180;2023-08-06T00:03:42;16.50;1.00
14057;DHT22;7103;54.300;10.180;2023-08-06T00:06:09;16.50;1.00
14057;DHT22;7103;54.300;10.180;2023-08-06T00:08:36;16.50;1.00
14057;DHT22;7103;54.300;10.180;2023-08-06T00:11:03;16.50;1.00
14057;DHT22;7103;54.300;10.180;2023-08-06T00:13:30;16.50;1.00
14057;DHT22;7103;54.300;10.180;2023-08-06T00:16:08;16.50;1.00
14057;DHT22;7103;54.300;10.180;2023-08-06T00:18:35;16.50;1.00
14057;DHT22;7103;54.300;10.180;2023-08-06T00:21:02;16.50;1.00
14057;DHT22;7103;54.300;10.180;2023-08-06T00:23:29;16.50;1.00
14057;DHT22;7103;54.300;10.180;2023-08-06T00:25:56;16.40;1.00
14057;DHT22;7103;54.300;10.180;2023-08-06T00:28:23;16.40;1.00
14057;DHT22;7103;54.300;10.180;2023-08-06T00:30:56;16.40;1.00
14057;DHT22;7103;54.300;10.180;2023-08-06T00:33:24;16.30;1.00
14057;DHT22;7103;54.300;10.180;2023-08-06T00:35:51;16.20;1.00
14057;DHT22;7103;54.300;10.180;2023-08-06T00:38:18;16.20;1.00
14057;DHT22;7103;54.300;10.180;2023-08-06T00:40:45;16.30;1.00
14057;DHT22;7103;54.300;10.180;2023-08-06T00:43:13;16.30;1.00
14057;DHT22;7103;54.300;10.180;2023-08-06T00:45:40;16.30;1.00
14057;DHT22;7103;54.300;10.180;2023-08-06T00:48:07;16.30;1.00
14057;DHT22;7103;54.300;10.180;2023-08-06T00:50:34;16.20;1.00
14057;DHT22;7103;54.300;10.180;2023-08-06T00:53:01;16.30;1.00
14057;DHT22;7103;54.300;10.180;2023-08-06T00:55:29;16.30;1.00
14057;DHT22;7103;54.300;10.180;2023-08-06T00:57:56;16.30;1.00
14057;DHT22;7103;54.300;10.180;2023-08-06T01:00:24;16.20;1.00
14057;DHT22;7103;54.300;10.180;2023-08-06T01:02:51;16.10;1.00
14057;DHT22;7103;54.300;10.180;2023-08-06T01:05:21;16.10;1.00
14057;DHT22;7103;54.300;10.180;2023-08-06T01:10:19;16.00;1.00
14057;DHT22;7103;54.300;10.180;2023-08-06T01:13:24;16.00;1.00
14057;DHT22;7103;54.300;10.180;2023-08-06T01:15:55;16.00;1.00
14057;DHT22;7103;54.300;10.180;2023-08-06T01:18:25;15.90;1.00
14057;DHT22;7103;54.300;10.180;2023-08-06T01:20:52;15.90;1.00
14057;DHT22;7103;54.300;10.180;2023-08-06T01:23:19;15.80;1.00
14057;DHT22;7103;54.300;10.180;2023-08-06T01:29:26;15.70;1.00
14057;DHT22;7103;54.300;10.180;2023-08-06T01:31:51;15.70;1.00
14057;DHT22;7103;54.300;10.180;2023-08-06T01:34:24;15.70;1.00
14057;DHT22;7103;54.300;10.180;2023-08-06T01:36:52;15.70;1.00
14057;DHT22;7103;54.300;10.180;2023-08-06T01:39:19;15.70;1.00
14057;DHT22;7103;54.300;10.180;2023-08-06T01:41:50;15.80;1.00
14057;DHT22;7103;54.300;10.180;2023-08-06T01:44:18;15.80;1.00
14057;DHT22;7103;54.300;10.180;2023-08-06T01:46:45;15.80;1.00
14057;DHT22;7103;54.300;10.180;2023-08-06T01:49:12;15.80;1.00
14057;DHT22;7103;54.300;10.180;2023-08-06T01:51:38;15.70;1.00
14057;DHT22;7103;54.300;10.180;2023-08-06T01:54:05;15.80;1.00
14057;DHT22;7103;54.300;10.180;2023-08-06T01:56:32;15.90;1.00
14057;DHT22;7103;54.300;10.180;2023-08-06T01:58:59;16.00;1.00
14057;DHT22;7103;54.300;10.180;2023-08-06T02:01:30;16.00;1.00
14057;DHT22;7103;54.300;10.180;2023-08-06T02:03:57;16.00;1.00
14057;DHT22;7103;54.300;10.180;2023-08-06T02:06:24;15.90;1.00
14057;DHT22;7103;54.300;10.180;2023-08-06T02:08:51;16.00;1.00
14057;DHT22;7103;54.300;10.180;2023-08-06T02:11:18;16.00;1.00
14057;DHT22;7103;54.300;10.180;2023-08-06T02:13:46;16.00;1.00
14057;DHT22;7103;54.300;10.180;2023-08-06T02:16:12;16.00;1.00
14057;DHT22;7103;54.300;10.180;2023-08-06T02:18:39;16.00;1.00
14057;DHT22;7103;54.300;10.180;2023-08-06T02:21:06;16.00;1.00
14057;DHT22;7103;54.300;10.180;2023-08-06T02:23:33;16.20;1.00
14057;DHT22;7103;54.300;10.180;2023-08-06T02:26:02;16.30;1.00
14057;DHT22;7103;54.300;10.180;2023-08-06T02:28:33;16.20;1.00
14057;DHT22;7103;54.300;10.180;2023-08-06T02:31:00;16.10;1.00
14057;DHT22;7103;54.300;10.180;2023-08-06T02:33:27;16.10;1.00
14057;DHT22;7103;54.300;10.180;2023-08-06T02:36:01;16.10;1.00
14057;DHT22;7103;54.300;10.180;2023-08-06T02:38:28;16.10;1.00
14057;DHT22;7103;54.300;10.180;2023-08-06T02:40:55;16.00;1.00
14057;DHT22;7103;54.300;10.180;2023-08-06T02:43:22;16.10;1.00
14057;DHT22;7103;54.300;10.180;2023-08-06T02:45:49;16.10;1.00
14057;DHT22;7103;54.300;10.180;2023-08-06T02:48:16;16.00;1.00
14057;DHT22;7103;54.300;10.180;2023-08-06T02:50:44;15.90;1.00
14057;DHT22;7103;54.300;10.180;2023-08-06T02:53:11;15.90;1.00
14057;DHT22;7103;54.300;10.180;2023-08-06T02:55:45;15.90;1.00
14057;DHT22;7103;54.300;10.180;2023-08-06T02:58:14;16.00;1.00
14057;DHT22;7103;54.300;10.180;2023-08-06T03:00:41;16.20;1.00
14057;DHT22;7103;54.300;10.180;2023-08-06T03:03:09;16.10;1.00
14057;DHT22;7103;54.300;10.180;2023-08-06T03:05:36;16.00;1.00
14057;DHT22;7103;54.300;10.180;2023-08-06T03:08:03;16.00;1.00
14057;DHT22;7103;54.300;10.180;2023-08-06T03:10:30;16.00;1.00
14057;DHT22;7103;54.300;10.180;2023-08-06T03:12:57;16.00;1.00
14057;DHT22;7103;54.300;10.180;2023-08-06T03:15:24;16.00;1.00
14057;DHT22;7103;54.300;10.180;2023-08-06T03:17:51;16.00;1.00
14057;DHT22;7103;54.300;10.180;2023-08-06T03:20:18;16.00;1.00
14057;DHT22;7103;54.300;10.180;2023-08-06T03:22:44;16.00;1.00
14057;DHT22;7103;54.300;10.180;2023-08-06T03:25:11;16.00;1.00
14057;DHT22;7103;54.300;10.180;2023-08-06T03:27:38;16.00;1.00
14057;DHT22;7103;54.300;10.180;2023-08-06T03:30:06;16.00;1.00
14057;DHT22;7103;54.300;10.180;2023-08-06T03:32:33;15.90;1.00
14057;DHT22;7103;54.300;10.180;2023-08-06T03:35:00;16.00;1.00
14057;DHT22;7103;54.300;10.180;2023-08-06T03:37:26;15.90;1.00
14057;DHT22;7103;54.300;10.180;2023-08-06T03:39:53;15.90;1.00
14057;DHT22;7103;54.300;10.180;2023-08-06T03:42:20;15.90;1.00
14057;DHT22;7103;54.300;10.180;2023-08-06T03:44:47;15.90;1.00
14057;DHT22;7103;54.300;10.180;2023-08-06T03:47:14;15.90;1.00
14057;DHT22;7103;54.300;10.180;2023-08-06T03:49:41;15.80;1.00
14057;DHT22;7103;54.300;10.180;2023-08-06T03:52:08;15.90;1.00
14057;DHT22;7103;54.300;10.180;2023-08-06T03:54:35;15.90;1.00
14057;DHT22;7103;54.300;10.180;2023-08-06T03:57:02;15.90;1.00
14057;DHT22;7103;54.300;10.180;2023-08-06T03:59:29;15.80;1.00
14057;DHT22;7103;54.300;10.180;2023-08-06T04:01:56;15.90;1.00
14057;DHT22;7103;54.300;10.180;2023-08-06T04:04:23;15.80;1.00
14057;DHT22;7103;54.300;10.180;2023-08-06T04:06:50;15.90;1.00
14057;DHT22;7103;54.300;10.180;2023-08-06T04:09:17;15.80;1.00
14057;DHT22;7103;54.300;10.180;2023-08-06T04:11:43;15.90;1.00
14057;DHT22;7103;54.300;10.180;2023-08-06T04:14:10;15.80;1.00
14057;DHT22;7103;54.300;10.180;2023-08-06T04:16:37;15.80;1.00
14057;DHT22;7103;54.300;10.180;2023-08-06T04:19:04;15.80;1.00
14057;DHT22;7103;54.300;10.180;2023-08-06T04:21:31;15.80;1.00
14057;DHT22;7103;54.300;10.180;2023-08-06T04:23:59;15.80;1.00
14057;DHT22;7103;54.300;10.180;2023-08-06T04:26:26;15.90;1.00
14057;DHT22;7103;54.300;10.180;2023-08-06T04:28:53;15.90;1.00
14057;DHT22;7103;54.300;10.180;2023-08-06T04:31:21;15.90;1.00
14057;DHT22;7103;54.300;10.180;2023-08-06T04:33:48;15.90;1.00
14057;DHT22;7103;54.300;10.180;2023-08-06T04:36:15;15.90;1.00
14057;DHT22;7103;54.300;10.180;2023-08-06T04:38:42;16.00;1.00
14057;DHT22;7103;54.300;10.180;2023-08-06T04:41:11;16.00;1.00
14057;DHT22;7103;54.300;10.180;2023-08-06T04:43:38;15.90;1.00
14057;DHT22;7103;54.300;10.180;2023-08-06T04:46:05;16.10;1.00
14057;DHT22;7103;54.300;10.180;2023-08-06T04:48:32;16.10;1.00
14057;DHT22;7103;54.300;10.180;2023-08-06T04:50:59;16.10;1.00
14057;DHT22;7103;54.300;10.180;2023-08-06T04:53:26;16.10;1.00
14057;DHT22;7103;54.300;10.180;2023-08-06T04:55:53;16.00;1.00
14057;DHT22;7103;54.300;10.180;2023-08-06T04:58:20;16.10;1.00
14057;DHT22;7103;54.300;10.180;2023-08-06T05:00:47;16.10;1.00
14057;DHT22;7103;54.300;10.180;2023-08-06T05:03:14;16.00;1.00
14057;DHT22;7103;54.300;10.180;2023-08-06T05:05:41;16.10;1.00
14057;DHT22;7103;54.300;10.180;2023-08-06T05:08:14;16.00;1.00
14057;DHT22;7103;54.300;10.180;2023-08-06T05:10:46;16.10;1.00
14057;DHT22;7103;54.300;10.180;2023-08-06T05:13:13;16.10;1.00
14057;DHT22;7103;54.300;10.180;2023-08-06T05:15:41;16.10;1.00
14057;DHT22;7103;54.300;10.180;2023-08-06T05:18:09;16.10;1.00
14057;DHT22;7103;54.300;10.180;2023-08-06T05:20:37;16.20;1.00
14057;DHT22;7103;54.300;10.180;2023-08-06T05:23:05;16.20;1.00
14057;DHT22;7103;54.300;10.180;2023-08-06T05:25:33;16.10;1.00
14057;DHT22;7103;54.300;10.180;2023-08-06T05:28:00;16.10;1.00
14057;DHT22;7103;54.300;10.180;2023-08-06T05:30:28;16.10;1.00
14057;DHT22;7103;54.300;10.180;2023-08-06T05:32:55;16.20;1.00
14057;DHT22;7103;54.300;10.180;2023-08-06T05:35:22;16.20;1.00
14057;DHT22;7103;54.300;10.180;2023-08-06T05:37:52;16.20;1.00
14057;DHT22;7103;54.300;10.180;2023-08-06T05:40:19;16.30;1.00
14057;DHT22;7103;54.300;10.180;2023-08-06T05:42:46;16.30;1.00
14057;DHT22;7103;54.300;10.180;2023-08-06T05:45:14;16.40;1.00
14057;DHT22;7103;54.300;10.180;2023-08-06T05:47:41;16.40;1.00
14057;DHT22;7103;54.300;10.180;2023-08-06T05:50:08;16.40;1.00
14057;DHT22;7103;54.300;10.180;2023-08-06T05:52:35;16.40;1.00
14057;DHT22;7103;54.300;10.180;2023-08-06T05:55:03;16.50;1.00
14057;DHT22;7103;54.300;10.180;2023-08-06T05:57:30;16.50;1.00
14057;DHT22;7103;54.300;10.180;2023-08-06T05:59:57;16.60;1.00
14057;DHT22;7103;54.300;10.180;2023-08-06T06:02:23;16.60;1.00
14057;DHT22;7103;54.300;10.180;2023-08-06T06:04:50;16.60;1.00
14057;DHT22;7103;54.300;10.180;2023-08-06T06:07:17;16.70;1.00
14057;DHT22;7103;54.300;10.180;2023-08-06T06:09:44;16.70;1.00
14057;DHT22;7103;54.300;10.180;2023-08-06T06:12:11;16.70;1.00
14057;DHT22;7103;54.300;10.180;2023-08-06T06:14:38;16.70;1.00
14057;DHT22;7103;54.300;10.180;2023-08-06T06:17:05;16.70;1.00
14057;DHT22;7103;54.300;10.180;2023-08-06T06:19:32;16.80;1.00
14057;DHT22;7103;54.300;10.180;2023-08-06T06:21:59;16.80;1.00
14057;DHT22;7103;54.300;10.180;2023-08-06T06:24:26;16.90;1.00
14057;DHT22;7103;54.300;10.180;2023-08-06T06:26:53;17.00;1.00
14057;DHT22;7103;54.300;10.180;2023-08-06T06:29:20;17.10;1.00
14057;DHT22;7103;54.300;10.180;2023-08-06T06:31:47;17.00;1.00
14057;DHT22;7103;54.300;10.180;2023-08-06T06:34:14;17.10;1.00
14057;DHT22;7103;54.300;10.180;2023-08-06T06:36:40;17.10;1.00
14057;DHT22;7103;54.300;10.180;2023-08-06T06:39:07;17.10;1.00
14057;DHT22;7103;54.300;10.180;2023-08-06T06:41:35;17.10;1.00
14057;DHT22;7103;54.300;10.180;2023-08-06T06:44:02;17.20;1.00
14057;DHT22;7103;54.300;10.180;2023-08-06T06:46:29;17.20;1.00
14057;DHT22;7103;54.300;10.180;2023-08-06T06:48:55;17.10;1.00
14057;DHT22;7103;54.300;10.180;2023-08-06T06:51:22;17.20;1.00
14057;DHT22;7103;54.300;10.180;2023-08-06T06:53:49;17.30;1.00
14057;DHT22;7103;54.300;10.180;2023-08-06T06:56:16;17.30;1.00
14057;DHT22;7103;54.300;10.180;2023-08-06T06:58:43;17.30;1.00
14057;DHT22;7103;54.300;10.180;2023-08-06T07:01:10;17.30;1.00
14057;DHT22;7103;54.300;10.180;2023-08-06T07:03:38;17.40;1.00
14057;DHT22;7103;54.300;10.180;2023-08-06T07:06:06;17.50;1.00
14057;DHT22;7103;54.300;10.180;2023-08-06T07:08:33;17.60;1.00
14057;DHT22;7103;54.300;10.180;2023-08-06T07:11:04;17.60;1.00
14057;DHT22;7103;54.300;10.180;2023-08-06T07:13:33;17.60;1.00
14057;DHT22;7103;54.300;10.180;2023-08-06T07:16:00;17.60;1.00
14057;DHT22;7103;54.300;10.180;2023-08-06T07:18:27;17.60;1.00
14057;DHT22;7103;54.300;10.180;2023-08-06T07:20:55;17.60;1.00
14057;DHT22;7103;54.300;10.180;2023-08-06T07:23:23;17.70;1.00
14057;DHT22;7103;54.300;10.180;2023-08-06T07:25:51;17.80;1.00
14057;DHT22;7103;54.300;10.180;2023-08-06T07:28:18;17.80;1.00
14057;DHT22;7103;54.300;10.180;2023-08-06T07:30:45;17.80;1.00
14057;DHT22;7103;54.300;10.180;2023-08-06T07:33:13;17.80;1.00
14057;DHT22;7103;54.300;10.180;2023-08-06T07:35:40;17.90;1.00
14057;DHT22;7103;54.300;10.180;2023-08-06T07:38:06;17.90;1.00
14057;DHT22;7103;54.300;10.180;2023-08-06T07:40:36;17.90;1.00
14057;DHT22;7103;54.300;10.180;2023-08-06T07:43:04;18.00;1.00
14057;DHT22;7103;54.300;10.180;2023-08-06T07:45:35;18.10;1.00
14057;DHT22;7103;54.300;10.180;2023-08-06T07:48:03;18.20;1.00
14057;DHT22;7103;54.300;10.180;2023-08-06T07:50:30;18.10;1.00
14057;DHT22;7103;54.300;10.180;2023-08-06T07:52:57;18.20;1.00
14057;DHT22;7103;54.300;10.180;2023-08-06T07:55:24;18.20;1.00
14057;DHT22;7103;54.300;10.180;2023-08-06T07:57:51;18.30;1.00
14057;DHT22;7103;54.300;10.180;2023-08-06T08:00:18;18.30;1.00
14057;DHT22;7103;54.300;10.180;2023-08-06T08:02:45;18.30;1.00
14057;DHT22;7103;54.300;10.180;2023-08-06T08:05:13;18.30;1.00
14057;DHT22;7103;54.300;10.180;2023-08-06T08:07:40;18.30;1.00
14057;DHT22;7103;54.300;10.180;2023-08-06T08:10:07;18.40;1.00
14057;DHT22;7103;54.300;10.180;2023-08-06T08:12:34;18.30;1.00
14057;DHT22;7103;54.300;10.180;2023-08-06T08:15:01;18.20;1.00
14057;DHT22;7103;54.300;10.180;2023-08-06T08:17:28;18.10;1.00
14057;DHT22;7103;54.300;10.180;2023-08-06T08:19:55;18.10;1.00
14057;DHT22;7103;54.300;10.180;2023-08-06T08:22:22;18.10;1.00
14057;DHT22;7103;54.300;10.180;2023-08-06T08:24:49;18.20;1.00
14057;DHT22;7103;54.300;10.180;2023-08-06T08:27:16;18.30;1.00
14057;DHT22;7103;54.300;10.180;2023-08-06T08:29:43;18.40;1.00
14057;DHT22;7103;54.300;10.180;2023-08-06T08:32:10;18.50;1.00
14057;DHT22;7103;54.300;10.180;2023-08-06T08:34:37;18.50;1.00
14057;DHT22;7103;54.300;10.180;2023-08-06T08:37:03;18.60;1.00
14057;DHT22;7103;54.300;10.180;2023-08-06T08:39:32;18.80;1.00
14057;DHT22;7103;54.300;10.180;2023-08-06T08:41:59;19.00;1.00
14057;DHT22;7103;54.300;10.180;2023-08-06T08:44:28;19.00;1.00
14057;DHT22;7103;54.300;10.180;2023-08-06T08:46:56;19.20;1.00
14057;DHT22;7103;54.300;10.180;2023-08-06T08:49:24;19.30;1.00
14057;DHT22;7103;54.300;10.180;2023-08-06T08:51:53;19.40;1.00
14057;DHT22;7103;54.300;10.180;2023-08-06T08:54:23;19.50;1.00
14057;DHT22;7103;54.300;10.180;2023-08-06T08:56:50;19.60;1.00
14057;DHT22;7103;54.300;10.180;2023-08-06T08:59:17;19.70;1.00
14057;DHT22;7103;54.300;10.180;2023-08-06T09:01:46;19.70;1.00
14057;DHT22;7103;54.300;10.180;2023-08-06T09:04:17;19.80;1.00
14057;DHT22;7103;54.300;10.180;2023-08-06T09:06:46;19.90;1.00
14057;DHT22;7103;54.300;10.180;2023-08-06T09:09:20;19.90;1.00
14057;DHT22;7103;54.300;10.180;2023-08-06T09:11:49;20.20;1.00
14057;DHT22;7103;54.300;10.180;2023-08-06T09:14:17;20.10;1.00
14057;DHT22;7103;54.300;10.180;2023-08-06T09:16:44;20.20;1.00
14057;DHT22;7103;54.300;10.180;2023-08-06T09:19:12;20.00;1.00
14057;DHT22;7103;54.300;10.180;2023-08-06T09:21:40;20.10;1.00
14057;DHT22;7103;54.300;10.180;2023-08-06T09:24:13;20.00;1.00
14057;DHT22;7103;54.300;10.180;2023-08-06T09:26:43;20.10;1.00
14057;DHT22;7103;54.300;10.180;2023-08-06T09:29:10;19.90;1.00
14057;DHT22;7103;54.300;10.180;2023-08-06T09:31:49;20.10;1.00
14057;DHT22;7103;54.300;10.180;2023-08-06T09:34:22;20.20;1.00
14057;DHT22;7103;54.300;10.180;2023-08-06T09:36:51;20.40;1.00
14057;DHT22;7103;54.300;10.180;2023-08-06T09:39:19;20.50;1.00
14057;DHT22;7103;54.300;10.180;2023-08-06T09:41:47;20.50;1.00
14057;DHT22;7103;54.300;10.180;2023-08-06T09:44:19;20.50;1.00
14057;DHT22;7103;54.300;10.180;2023-08-06T09:46:50;20.60;1.00
14057;DHT22;7103;54.300;10.180;2023-08-06T09:49:19;20.50;1.00
14057;DHT22;7103;54.300;10.180;2023-08-06T09:51:51;20.60;1.00
14057;DHT22;7103;54.300;10.180;2023-08-06T09:54:19;20.70;1.00
14057;DHT22;7103;54.300;10.180;2023-08-06T09:56:56;20.70;1.00
14057;DHT22;7103;54.300;10.180;2023-08-06T09:59:24;20.60;1.00
14057;DHT22;7103;54.300;10.180;2023-08-06T10:01:54;20.50;1.00
14057;DHT22;7103;54.300;10.180;2023-08-06T10:04:23;20.50;1.00
14057;DHT22;7103;54.300;10.180;2023-08-06T10:06:56;20.60;1.00
14057;DHT22;7103;54.300;10.180;2023-08-06T10:09:25;20.60;1.00
14057;DHT22;7103;54.300;10.180;2023-08-06T10:11:52;20.60;1.00
14057;DHT22;7103;54.300;10.180;2023-08-06T10:14:28;20.60;1.00
14057;DHT22;7103;54.300;10.180;2023-08-06T10:16:57;20.60;1.00
14057;DHT22;7103;54.300;10.180;2023-08-06T10:19:26;20.50;1.00
14057;DHT22;7103;54.300;10.180;2023-08-06T10:22:12;20.50;1.00
14057;DHT22;7103;54.300;10.180;2023-08-06T10:24:50;20.40;1.00
14057;DHT22;7103;54.300;10.180;2023-08-06T10:27:35;20.40;1.00
14057;DHT22;7103;54.300;10.180;2023-08-06T10:30:24;20.30;1.00
14057;DHT22;7103;54.300;10.180;2023-08-06T10:32:53;20.50;1.00
14057;DHT22;7103;54.300;10.180;2023-08-06T10:38:12;20.70;1.00
14057;DHT22;7103;54.300;10.180;2023-08-06T10:40:41;20.70;1.00
14057;DHT22;7103;54.300;10.180;2023-08-06T10:43:42;21.10;1.00
14057;DHT22;7103;54.300;10.180;2023-08-06T10:46:21;21.20;1.00
14057;DHT22;7103;54.300;10.180;2023-08-06T10:48:48;21.40;1.00
14057;DHT22;7103;54.300;10.180;2023-08-06T10:51:15;21.40;1.00
14057;DHT22;7103;54.300;10.180;2023-08-06T10:53:45;21.30;1.00
14057;DHT22;7103;54.300;10.180;2023-08-06T10:56:16;21.30;1.00
14057;DHT22;7103;54.300;10.180;2023-08-06T10:58:44;21.40;1.00
14057;DHT22;7103;54.300;10.180;2023-08-06T11:01:12;21.40;1.00
14057;DHT22;7103;54.300;10.180;2023-08-06T11:03:41;21.50;1.00
14057;DHT22;7103;54.300;10.180;2023-08-06T11:06:08;21.50;1.00
14057;DHT22;7103;54.300;10.180;2023-08-06T11:08:47;21.40;1.00
14057;DHT22;7103;54.300;10.180;2023-08-06T11:11:15;21.40;1.00
14057;DHT22;7103;54.300;10.180;2023-08-06T11:13:48;21.30;1.00
14057;DHT22;7103;54.300;10.180;2023-08-06T11:16:17;21.50;99.90
14057;DHT22;7103;54.300;10.180;2023-08-06T11:18:45;21.80;99.90
14057;DHT22;7103;54.300;10.180;2023-08-06T11:21:12;21.90;99.90
14057;DHT22;7103;54.300;10.180;2023-08-06T11:23:40;22.10;99.90
14057;DHT22;7103;54.300;10.180;2023-08-06T11:26:07;22.20;99.90
14057;DHT22;7103;54.300;10.180;2023-08-06T11:28:34;22.40;99.90
14057;DHT22;7103;54.300;10.180;2023-08-06T11:31:01;22.60;99.90
14057;DHT22;7103;54.300;10.180;2023-08-06T11:33:30;22.70;99.90
14057;DHT22;7103;54.300;10.180;2023-08-06T11:35:59;22.70;99.90
14057;DHT22;7103;54.300;10.180;2023-08-06T11:38:29;22.60;99.90
14057;DHT22;7103;54.300;10.180;2023-08-06T11:40:57;22.80;99.90
14057;DHT22;7103;54.300;10.180;2023-08-06T11:43:24;22.80;99.90
14057;DHT22;7103;54.300;10.180;2023-08-06T11:45:51;22.50;99.90
14057;DHT22;7103;54.300;10.180;2023-08-06T11:48:21;22.50;99.90
14057;DHT22;7103;54.300;10.180;2023-08-06T11:50:48;22.70;99.90
14057;DHT22;7103;54.300;10.180;2023-08-06T11:53:15;22.70;99.90
14057;DHT22;7103;54.300;10.180;2023-08-06T11:55:42;22.70;99.90
14057;DHT22;7103;54.300;10.180;2023-08-06T11:58:11;22.30;99.90
14057;DHT22;7103;54.300;10.180;2023-08-06T12:00:42;22.10;99.90
14057;DHT22;7103;54.300;10.180;2023-08-06T12:03:10;22.10;99.90
14057;DHT22;7103;54.300;10.180;2023-08-06T12:05:37;22.20;99.90
14057;DHT22;7103;54.300;10.180;2023-08-06T12:08:05;22.30;99.90
14057;DHT22;7103;54.300;10.180;2023-08-06T12:10:32;22.30;99.90
14057;DHT22;7103;54.300;10.180;2023-08-06T12:13:00;22.10;99.90
14057;DHT22;7103;54.300;10.180;2023-08-06T12:15:27;22.00;99.90
14057;DHT22;7103;54.300;10.180;2023-08-06T12:17:56;22.50;99.90
14057;DHT22;7103;54.300;10.180;2023-08-06T12:20:23;22.70;99.90
14057;DHT22;7103;54.300;10.180;2023-08-06T12:22:51;22.50;99.90
14057;DHT22;7103;54.300;10.180;2023-08-06T12:25:18;22.50;99.90
14057;DHT22;7103;54.300;10.180;2023-08-06T12:27:46;22.50;99.90
14057;DHT22;7103;54.300;10.180;2023-08-06T12:30:13;22.50;99.90
14057;DHT22;7103;54.300;10.180;2023-08-06T12:32:40;22.50;99.90
14057;DHT22;7103;54.300;10.180;2023-08-06T12:35:08;22.40;99.90
14057;DHT22;7103;54.300;10.180;2023-08-06T12:37:35;22.50;99.90
14057;DHT22;7103;54.300;10.180;2023-08-06T12:40:03;22.70;99.90
14057;DHT22;7103;54.300;10.180;2023-08-06T12:42:51;22.70;99.90
14057;DHT22;7103;54.300;10.180;2023-08-06T12:45:18;22.70;99.90
14057;DHT22;7103;54.300;10.180;2023-08-06T12:47:48;22.80;99.90
14057;DHT22;7103;54.300;10.180;2023-08-06T12:50:16;22.70;99.90
14057;DHT22;7103;54.300;10.180;2023-08-06T12:52:44;22.50;99.90
14057;DHT22;7103;54.300;10.180;2023-08-06T12:55:11;22.50;99.90
14057;DHT22;7103;54.300;10.180;2023-08-06T12:57:38;22.40;99.90
14057;DHT22;7103;54.300;10.180;2023-08-06T13:00:27;22.50;99.90
14057;DHT22;7103;54.300;10.180;2023-08-06T13:02:54;22.40;99.90
14057;DHT22;7103;54.300;10.180;2023-08-06T13:05:22;22.30;99.90
14057;DHT22;7103;54.300;10.180;2023-08-06T13:07:49;22.60;99.90
14057;DHT22;7103;54.300;10.180;2023-08-06T13:10:19;22.70;99.90
14057;DHT22;7103;54.300;10.180;2023-08-06T13:12:47;22.60;99.90
14057;DHT22;7103;54.300;10.180;2023-08-06T13:15:14;22.50;99.90
14057;DHT22;7103;54.300;10.180;2023-08-06T13:17:43;22.40;99.90
14057;DHT22;7103;54.300;10.180;2023-08-06T13:20:10;22.00;99.90
14057;DHT22;7103;54.300;10.180;2023-08-06T13:22:37;22.20;99.90
14057;DHT22;7103;54.300;10.180;2023-08-06T13:25:05;22.20;99.90
14057;DHT22;7103;54.300;10.180;2023-08-06T13:27:32;21.90;99.90
14057;DHT22;7103;54.300;10.180;2023-08-06T13:29:59;21.90;99.90
14057;DHT22;7103;54.300;10.180;2023-08-06T13:32:26;21.90;99.90
14057;DHT22;7103;54.300;10.180;2023-08-06T13:34:53;22.10;99.90
14057;DHT22;7103;54.300;10.180;2023-08-06T13:37:20;22.30;99.90
14057;DHT22;7103;54.300;10.180;2023-08-06T13:39:47;22.20;99.90
14057;DHT22;7103;54.300;10.180;2023-08-06T13:42:14;22.30;99.90
14057;DHT22;7103;54.300;10.180;2023-08-06T13:44:41;22.20;99.90
14057;DHT22;7103;54.300;10.180;2023-08-06T13:47:08;22.10;99.90
14057;DHT22;7103;54.300;10.180;2023-08-06T13:49:35;22.10;99.90
14057;DHT22;7103;54.300;10.180;2023-08-06T13:52:02;22.20;99.90
14057;DHT22;7103;54.300;10.180;2023-08-06T13:54:47;22.00;99.90
14057;DHT22;7103;54.300;10.180;2023-08-06T13:57:14;21.80;99.90
14057;DHT22;7103;54.300;10.180;2023-08-06T13:59:41;21.70;99.90
14057;DHT22;7103;54.300;10.180;2023-08-06T14:02:10;21.60;99.90
14057;DHT22;7103;54.300;10.180;2023-08-06T14:04:37;21.50;99.90
14057;DHT22;7103;54.300;10.180;2023-08-06T14:07:04;21.70;99.90
14057;DHT22;7103;54.300;10.180;2023-08-06T14:09:31;21.90;99.90
14057;DHT22;7103;54.300;10.180;2023-08-06T14:11:59;21.90;99.90
14057;DHT22;7103;54.300;10.180;2023-08-06T14:14:26;21.90;99.90
14057;DHT22;7103;54.300;10.180;2023-08-06T14:16:53;21.90;99.90
14057;DHT22;7103;54.300;10.180;2023-08-06T14:19:22;22.00;99.90
14057;DHT22;7103;54.300;10.180;2023-08-06T14:21:49;21.90;99.90
14057;DHT22;7103;54.300;10.180;2023-08-06T14:24:18;21.90;99.90
14057;DHT22;7103;54.300;10.180;2023-08-06T14:26:45;22.00;99.90
14057;DHT22;7103;54.300;10.180;2023-08-06T14:29:11;21.80;99.90
14057;DHT22;7103;54.300;10.180;2023-08-06T14:31:40;22.10;99.90
14057;DHT22;7103;54.300;10.180;2023-08-06T14:34:07;22.10;99.90
14057;DHT22;7103;54.300;10.180;2023-08-06T14:36:34;22.30;99.90
14057;DHT22;7103;54.300;10.180;2023-08-06T14:39:01;22.30;99.90
14057;DHT22;7103;54.300;10.180;2023-08-06T14:41:28;22.30;99.90
14057;DHT22;7103;54.300;10.180;2023-08-06T14:43:55;22.30;99.90
14057;DHT22;7103;54.300;10.180;2023-08-06T14:46:22;22.20;99.90
14057;DHT22;7103;54.300;10.180;2023-08-06T14:48:49;22.00;99.90
14057;DHT22;7103;54.300;10.180;2023-08-06T14:51:16;21.90;99.90
14057;DHT22;7103;54.300;10.180;2023-08-06T14:53:46;21.90;99.90
14057;DHT22;7103;54.300;10.180;2023-08-06T14:56:13;21.80;99.90
14057;DHT22;7103;54.300;10.180;2023-08-06T14:58:40;21.50;99.90
14057;DHT22;7103;54.300;10.180;2023-08-06T15:01:08;21.60;99.90
14057;DHT22;7103;54.300;10.180;2023-08-06T15:03:35;21.60;99.90
14057;DHT22;7103;54.300;10.180;2023-08-06T15:06:02;21.60;99.90
14057;DHT22;7103;54.300;10.180;2023-08-06T15:08:29;21.60;99.90
14057;DHT22;7103;54.300;10.180;2023-08-06T15:10:56;21.40;99.90
14057;DHT22;7103;54.300;10.180;2023-08-06T15:13:23;21.40;99.90
14057;DHT22;7103;54.300;10.180;2023-08-06T15:15:50;21.40;99.90
14057;DHT22;7103;54.300;10.180;2023-08-06T15:18:17;21.50;99.90
14057;DHT22;7103;54.300;10.180;2023-08-06T15:20:44;21.50;99.90
14057;DHT22;7103;54.300;10.180;2023-08-06T15:23:10;21.50;99.90
14057;DHT22;7103;54.300;10.180;2023-08-06T15:25:37;21.60;99.90
14057;DHT22;7103;54.300;10.180;2023-08-06T15:28:04;21.50;99.90
14057;DHT22;7103;54.300;10.180;2023-08-06T15:30:32;21.50;99.90
14057;DHT22;7103;54.300;10.180;2023-08-06T15:32:59;21.60;99.90
14057;DHT22;7103;54.300;10.180;2023-08-06T15:35:27;21.30;99.90
14057;DHT22;7103;54.300;10.180;2023-08-06T15:37:53;21.10;99.90
14057;DHT22;7103;54.300;10.180;2023-08-06T15:40:20;21.10;99.90
14057;DHT22;7103;54.300;10.180;2023-08-06T15:42:48;21.20;99.90
14057;DHT22;7103;54.300;10.180;2023-08-06T15:45:15;21.20;99.90
14057;DHT22;7103;54.300;10.180;2023-08-06T15:47:42;21.10;99.90
14057;DHT22;7103;54.300;10.180;2023-08-06T15:50:09;21.10;99.90
14057;DHT22;7103;54.300;10.180;2023-08-06T15:52:36;21.10;99.90
14057;DHT22;7103;54.300;10.180;2023-08-06T15:55:04;21.00;99.90
14057;DHT22;7103;54.300;10.180;2023-08-06T15:57:33;20.90;99.90